Terminal Aerodrome Forecast
Issued by NWS Atlanta, GA

Current Version | Previous Version | Text Only | Print | Product List | Glossary On
Versions: 1 2 3 4 5 6 7 8 9 10 11 12 13 14
000
FTUS42 KFFC 301729
TAFMCN
TAF
KMCN 301729Z 3018/3118 07010G17KT P6SM VCSH SCT045 SCT100
      TEMPO 3018/3022 6SM -TSRA BKN035CB
     FM302300 07006KT P6SM VCSH SCT040
     FM310200 08005KT P6SM FEW040
     FM311000 04007KT P6SM SCT120
     FM311400 05009KT P6SM FEW030
     FM311600 06006KT P6SM SCT050=

USA.gov is the U.S. government's official web portal to all federal, state and local government web resources and services.